Time;durP1;ratioP1;P1;durP2;ratioP2;P2;SDS_P1;SDS_P2;PMS_P1;PMS_P2;Temp;Humidity;BMP_temperature;BMP_pressure;BME280_temperature;BME280_humidity;BME280_pressure;Samples;Min_cycle;Max_cycle;Signal;HPM_P1;HPM_P2
2021/03/01 00:00:45;;;;;;;26.90;11.78;;;;;;;2.64;90.72;102935.18;123784;1102;64915;-81
2021/03/01 00:03:12;;;;;;;26.03;12.07;;;;;;;2.63;91.11;102930.84;123481;1105;65712;-79
2021/03/01 00:05:38;;;;;;;30.00;13.70;;;;;;;2.62;90.44;102927.38;123814;1102;64908;-79
2021/03/01 00:08:05;;;;;;;26.00;12.83;;;;;;;2.64;90.48;102922.08;123831;1102;64891;-82
2021/03/01 00:10:32;;;;;;;26.63;10.70;;;;;;;2.65;90.80;102924.61;123749;1102;64936;-81
2021/03/01 00:12:58;;;;;;;24.30;12.70;;;;;;;2.69;91.30;102929.73;123576;1102;65444;-82
2021/03/01 00:15:25;;;;;;;21.05;11.45;;;;;;;2.71;90.38;102931.36;123849;1102;65949;-80
2021/03/01 00:17:51;;;;;;;15.68;7.67;;;;;;;2.72;91.25;102921.72;123957;1102;64897;-81
2021/03/01 00:20:18;;;;;;;24.10;12.90;;;;;;;2.70;90.89;102921.81;123470;1102;65036;-79
2021/03/01 00:22:45;;;;;;;26.43;11.90;;;;;;;2.70;91.03;102911.33;123539;1102;64978;-79
2021/03/01 00:25:13;;;;;;;32.03;14.60;;;;;;;2.71;90.68;102918.25;126400;1102;64783;-80
2021/03/01 00:27:40;;;;;;;27.37;13.40;;;;;;;2.74;90.53;102919.88;126840;1102;62476;-80
2021/03/01 00:30:08;;;;;;;25.40;13.17;;;;;;;2.77;91.27;102917.98;126839;1101;62616;-81
2021/03/01 00:32:35;;;;;;;21.30;11.70;;;;;;;2.82;91.01;102920.39;123959;1102;64914;-78
2021/03/01 00:35:05;;;;;;;18.67;10.50;;;;;;;2.84;90.09;102916.77;123815;1102;66756;-79
2021/03/01 00:37:31;;;;;;;18.27;10.00;;;;;;;2.86;90.58;102906.22;123563;1105;64892;-81
2021/03/01 00:39:57;;;;;;;22.37;11.23;;;;;;;2.88;90.61;102914.87;123747;1102;64930;-81
2021/03/01 00:42:23;;;;;;;16.87;10.17;;;;;;;2.88;89.97;102914.87;123849;1102;65022;-79
2021/03/01 00:44:50;;;;;;;21.25;11.50;;;;;;;2.83;90.38;102912.47;123957;1102;64894;-80
2021/03/01 00:47:17;;;;;;;24.20;12.00;;;;;;;2.84;90.23;102918.55;123574;1102;64952;-79
2021/03/01 00:49:43;;;;;;;27.70;13.60;;;;;;;2.83;90.88;102920.33;123562;1102;64969;-79
2021/03/01 00:52:10;;;;;;;26.27;12.90;;;;;;;2.85;90.06;102921.11;123667;1102;64883;-81
2021/03/01 00:54:36;;;;;;;27.03;13.57;;;;;;;2.87;89.97;102915.80;123997;1102;64914;-79
2021/03/01 00:57:04;;;;;;;26.07;13.07;;;;;;;2.88;89.99;102917.49;123543;1102;64959;-80
2021/03/01 00:59:30;;;;;;;22.80;12.60;;;;;;;2.88;90.35;102917.49;123507;1105;65035;-81
2021/03/01 01:01:57;;;;;;;25.47;13.07;;;;;;;2.89;90.01;102916.59;123652;1102;65404;-81
2021/03/01 01:04:23;;;;;;;18.80;9.80;;;;;;;2.89;89.77;102920.95;123750;1102;65774;-80
2021/03/01 01:06:50;;;;;;;24.50;11.85;;;;;;;2.89;89.87;102911.34;123573;1105;64941;-80
2021/03/01 01:09:17;;;;;;;34.10;14.75;;;;;;;2.89;90.34;102911.34;123601;1102;65443;-79
2021/03/01 01:11:44;;;;;;;30.13;15.13;;;;;;;2.92;90.10;102910.34;123505;1101;65072;-80
2021/03/01 01:14:10;;;;;;;25.73;14.30;;;;;;;2.95;90.31;102908.41;123721;1102;64889;-81
2021/03/01 01:16:36;;;;;;;27.57;13.27;;;;;;;2.98;90.35;102910.06;123480;1102;65221;-81
2021/03/01 01:19:08;;;;;;;21.60;11.75;;;;;;;3.01;89.97;102912.53;123517;1102;64892;-81
2021/03/01 01:21:35;;;;;;;21.27;11.83;;;;;;;3.06;89.96;102918.44;123495;1102;64892;-79
2021/03/01 01:24:02;;;;;;;27.20;13.05;;;;;;;3.09;89.76;102917.44;123529;1102;65055;-79
2021/03/01 01:26:29;;;;;;;28.73;13.00;;;;;;;3.11;89.88;102916.44;123471;1103;64854;-81
2021/03/01 01:28:55;;;;;;;29.33;13.90;;;;;;;3.13;89.88;102909.34;123642;1102;65714;-81
2021/03/01 01:31:21;;;;;;;27.23;13.80;;;;;;;3.17;89.63;102910.06;123439;1105;64941;-81
2021/03/01 01:33:48;;;;;;;31.68;14.47;;;;;;;3.19;89.60;102903.81;123461;1102;64979;-81
2021/03/01 01:36:14;;;;;;;24.37;13.20;;;;;;;3.19;89.73;102903.81;123436;1102;65347;-80
2021/03/01 01:38:50;;;;;;;26.87;13.37;;;;;;;3.20;90.22;102909.91;123392;1102;64888;-80
2021/03/01 01:41:17;;;;;;;23.40;12.93;;;;;;;3.19;89.97;102901.19;123424;1102;65029;-79
2021/03/01 01:43:43;;;;;;;27.10;13.90;;;;;;;3.21;89.94;102901.09;123477;1102;64902;-80
2021/03/01 01:46:09;;;;;;;30.77;14.00;;;;;;;3.21;90.21;102891.48;123442;1102;64902;-79
2021/03/01 01:48:36;;;;;;;28.07;14.27;;;;;;;3.21;89.51;102891.48;123409;1103;65672;-82
2021/03/01 01:51:02;;;;;;;30.13;15.27;;;;;;;3.22;89.06;102887.08;123464;1106;64841;-79
2021/03/01 01:53:29;;;;;;;25.17;12.83;;;;;;;3.23;89.65;102888.77;123470;1103;66084;-82
2021/03/01 01:55:57;;;;;;;27.93;14.70;;;;;;;3.25;89.62;102892.16;123542;1102;65346;-79
2021/03/01 01:58:23;;;;;;;26.47;12.30;;;;;;;3.24;88.89;102886.08;123516;1102;64921;-80
2021/03/01 02:00:50;;;;;;;29.10;15.60;;;;;;;3.23;90.22;102889.63;123351;1102;65029;-81
2021/03/01 02:03:28;;;;;;;31.37;14.53;;;;;;;3.24;89.58;102886.08;123553;1101;65014;-81
2021/03/01 02:05:57;;;;;;;30.25;14.00;;;;;;;3.26;89.58;102876.36;123458;1102;64917;-81
2021/03/01 02:08:41;;;;;;;30.85;14.40;;;;;;;3.26;89.99;102878.98;123714;1102;64891;-84
2021/03/01 02:11:33;;;;;;;19.70;9.67;;;;;;;3.28;89.37;102878.08;123507;1102;64943;-81
2021/03/01 02:14:25;;;;;;;25.23;12.00;;;;;;;3.24;88.73;102880.83;123526;1102;64841;-81
2021/03/01 02:16:52;;;;;;;27.37;14.43;;;;;;;3.23;89.57;102879.14;123669;1102;65343;-82
2021/03/01 02:19:19;;;;;;;27.30;15.03;;;;;;;3.25;89.34;102881.67;123657;1102;65305;-81
2021/03/01 02:21:46;;;;;;;27.47;12.70;;;;;;;3.28;89.73;102875.45;123740;1102;64931;-81
2021/03/01 02:24:21;;;;;;;31.37;15.47;;;;;;;3.29;89.87;102877.14;123906;1102;64949;-81
2021/03/01 02:26:49;;;;;;;;;;;;;;;3.31;89.09;102870.05;123535;1102;64924;-82
2021/03/01 02:29:19;;;;;;;23.13;11.83;;;;;;;3.33;89.94;102865.58;123882;1102;64895;-82
2021/03/01 02:31:47;;;;;;;22.93;13.30;;;;;;;3.32;89.19;102858.64;123709;1105;65093;-82
2021/03/01 02:34:18;;;;;;;26.63;12.73;;;;;;;3.30;88.89;102869.20;123944;1102;64915;-79
2021/03/01 02:36:53;;;;;;;20.20;10.30;;;;;;;3.27;88.84;102856.22;125860;1101;64764;-83
2021/03/01 02:39:22;;;;;;;24.00;12.18;;;;;;;3.28;89.27;102864.96;124185;1102;64905;-81
2021/03/01 02:41:51;;;;;;;25.30;12.07;;;;;;;3.30;89.15;102865.73;124094;1102;64902;-82
2021/03/01 02:44:18;;;;;;;27.60;12.20;;;;;;;3.33;89.23;102870.83;123968;1102;64921;-82
2021/03/01 02:46:47;;;;;;;24.83;11.03;;;;;;;3.34;89.26;102864.67;123644;1102;64888;-81
2021/03/01 02:49:15;;;;;;;26.13;12.37;;;;;;;3.38;88.43;102864.44;123939;1102;64908;-80
2021/03/01 02:51:45;;;;;;;20.57;11.27;;;;;;;3.38;88.18;102864.44;123651;1102;64854;-81
2021/03/01 02:54:13;;;;;;;18.27;9.00;;;;;;;3.38;89.00;102855.69;123582;1105;64975;-81
2021/03/01 02:56:40;;;;;;;19.20;8.00;;;;;;;3.31;87.62;102855.15;123905;1102;64924;-79
2021/03/01 02:59:09;;;;;;;22.10;9.13;;;;;;;3.30;87.87;102852.63;124016;1101;64927;-78
2021/03/01 03:01:38;;;;;;;23.87;10.13;;;;;;;3.29;88.24;102856.16;123567;1102;64947;-79
2021/03/01 03:04:06;;;;;;;21.30;10.23;;;;;;;3.28;87.42;102863.18;123698;1105;65035;-79
2021/03/01 03:06:36;;;;;;;21.50;9.37;;;;;;;3.30;87.31;102856.09;123938;1102;65386;-78
2021/03/01 03:09:07;;;;;;;17.00;9.53;;;;;;;3.28;87.48;102859.72;123834;1102;64780;-79
2021/03/01 03:11:34;;;;;;;19.80;9.13;;;;;;;3.26;87.85;102867.65;123871;1102;64965;-79
2021/03/01 03:14:02;;;;;;;18.27;8.97;;;;;;;3.23;88.36;102868.66;123840;1102;64963;-81
2021/03/01 03:16:29;;;;;;;13.17;7.40;;;;;;;3.20;87.17;102867.94;123819;1102;65052;-79
2021/03/01 03:18:57;;;;;;;22.93;11.30;;;;;;;3.20;87.89;102873.19;123533;1102;64979;-80
2021/03/01 03:21:24;;;;;;;23.20;12.55;;;;;;;3.21;87.95;102872.25;123719;1102;65023;-80
2021/03/01 03:23:53;;;;;;;22.33;10.47;;;;;;;3.23;88.23;102868.66;123545;1104;64994;-79
2021/03/01 03:26:19;;;;;;;21.35;9.90;;;;;;;3.21;86.96;102857.38;123952;1102;64892;-78
2021/03/01 03:28:46;;;;;;;22.60;11.53;;;;;;;3.21;87.26;102865.25;123466;1102;64920;-80
2021/03/01 03:31:12;;;;;;;20.30;11.37;;;;;;;3.22;88.36;102872.19;123837;1102;64921;-78
2021/03/01 03:33:40;;;;;;;21.00;9.75;;;;;;;3.23;88.28;102879.14;123570;1102;64952;-79
2021/03/01 03:36:08;;;;;;;21.20;10.83;;;;;;;3.24;88.22;102870.34;123644;1105;64924;-79
2021/03/01 03:38:41;;;;;;;21.13;10.47;;;;;;;3.25;88.09;102872.05;123608;1102;65001;-78
2021/03/01 03:41:08;;;;;;;22.33;10.43;;;;;;;3.32;87.76;102874.38;123952;1102;64866;-78
2021/03/01 03:43:35;;;;;;;22.00;10.33;;;;;;;3.36;87.30;102868.03;123932;1102;65785;-78
2021/03/01 03:46:04;;;;;;;26.20;12.20;;;;;;;3.37;87.83;102864.51;124020;1102;64921;-79
2021/03/01 03:48:32;;;;;;;25.13;12.30;;;;;;;3.40;87.75;102872.21;123820;1105;64966;-78
2021/03/01 03:51:00;;;;;;;26.97;12.20;;;;;;;3.44;87.02;102876.39;123524;1102;65363;-79
2021/03/01 03:53:30;;;;;;;21.40;9.80;;;;;;;3.44;87.43;102879.02;123969;1102;64885;-82
2021/03/01 03:55:59;;;;;;;21.37;10.80;;;;;;;3.42;86.14;102872.98;124117;1102;64847;-82
2021/03/01 03:58:30;;;;;;;13.83;7.00;;;;;;;3.41;87.35;102884.42;123647;1103;64946;-80
2021/03/01 04:01:00;;;;;;;17.47;9.50;;;;;;;3.36;87.34;102883.78;123501;1102;66142;-81
2021/03/01 04:03:28;;;;;;;22.93;10.03;;;;;;;3.36;87.50;102878.53;123918;1102;64847;-81
2021/03/01 04:05:56;;;;;;;24.75;10.75;;;;;;;3.35;87.37;102884.72;124068;1102;64914;-81
2021/03/01 04:08:26;;;;;;;26.77;11.30;;;;;;;3.39;86.59;102888.89;123614;1103;64870;-81
2021/03/01 04:10:54;;;;;;;26.87;12.03;;;;;;;3.40;86.60;102878.33;124567;1102;64901;-79
2021/03/01 04:13:24;;;;;;;24.17;11.57;;;;;;;3.43;87.58;102872.08;124006;1102;64831;-78
2021/03/01 04:15:50;;;;;;;22.60;10.40;;;;;;;3.42;86.77;102878.23;123577;1102;65215;-80
2021/03/01 04:18:24;;;;;;;23.85;11.80;;;;;;;3.38;86.46;102874.94;123597;1105;65026;-79
2021/03/01 04:20:54;;;;;;;21.73;10.80;;;;;;;3.36;86.38;102875.91;123848;1102;64926;-78
2021/03/01 04:23:21;;;;;;;15.57;7.37;;;;;;;3.32;86.60;102877.85;123501;1103;64998;-80
2021/03/01 04:25:50;;;;;;;21.90;7.05;;;;;;;3.28;87.20;102884.16;123646;1105;64959;-79
2021/03/01 04:28:18;;;;;;;25.37;10.17;;;;;;;3.25;86.03;102882.55;123824;1102;64891;-81
2021/03/01 04:30:48;;;;;;;29.20;12.20;;;;;;;3.21;86.89;102880.98;123898;1102;65064;-80
2021/03/01 04:33:16;;;;;;;26.33;11.57;;;;;;;3.21;87.09;102888.86;123919;1102;64866;-79
2021/03/01 04:35:45;;;;;;;23.90;10.70;;;;;;;3.21;86.07;102894.11;123651;1102;65701;-79
2021/03/01 04:38:12;;;;;;;19.60;8.87;;;;;;;3.22;86.15;102897.56;123619;1101;65003;-80
2021/03/01 04:40:38;;;;;;;20.97;10.03;;;;;;;3.21;87.05;102893.23;124712;1102;64903;-80
2021/03/01 04:43:10;;;;;;;20.30;9.97;;;;;;;3.21;86.33;102888.86;125723;1102;64914;-82
2021/03/01 04:45:40;;;;;;;19.10;9.07;;;;;;;3.21;86.38;102891.48;123648;1102;64956;-81
2021/03/01 04:48:10;;;;;;;23.23;9.13;;;;;;;3.20;85.96;102887.14;123892;1102;65281;-80
2021/03/01 04:50:38;;;;;;;26.77;11.07;;;;;;;3.19;85.67;102893.33;123555;1102;64991;-82
2021/03/01 04:53:05;;;;;;;16.03;7.13;;;;;;;3.15;85.64;102891.77;123588;1102;64911;-79
2021/03/01 04:55:33;;;;;;;22.93;10.63;;;;;;;3.12;86.70;102891.89;123448;1102;64918;-81
2021/03/01 04:58:00;;;;;;;28.03;11.73;;;;;;;3.12;86.90;102896.30;123939;1102;64889;-81
2021/03/01 05:00:27;;;;;;;16.13;8.83;;;;;;;3.10;86.83;102895.52;123562;1105;65727;-79
2021/03/01 05:02:55;;;;;;;20.65;10.10;;;;;;;3.09;86.05;102893.83;123866;1102;64950;-81
2021/03/01 05:05:21;;;;;;;21.80;11.47;;;;;;;3.10;86.92;102892.89;123429;1105;64950;-80
2021/03/01 05:07:48;;;;;;;21.35;10.10;;;;;;;3.11;86.49;102884.97;123575;1102;64969;-81
2021/03/01 05:10:14;;;;;;;23.80;9.17;;;;;;;3.13;86.52;102903.26;123522;1102;64899;-79
2021/03/01 05:12:40;;;;;;;28.70;12.70;;;;;;;3.15;86.09;102897.02;123776;1102;65036;-79
2021/03/01 05:15:07;;;;;;;25.03;11.10;;;;;;;3.15;85.63;102894.39;123569;1102;64928;-82
2021/03/01 05:17:33;;;;;;;23.47;11.07;;;;;;;3.16;86.32;102890.83;123513;1102;64956;-82
2021/03/01 05:20:00;;;;;;;23.40;11.50;;;;;;;3.20;86.17;102897.63;123524;1102;65342;-82
2021/03/01 05:22:26;;;;;;;23.23;12.30;;;;;;;3.24;85.86;102890.48;123604;1102;64931;-82
2021/03/01 05:24:52;;;;;;;18.90;9.75;;;;;;;3.24;86.08;102891.32;123518;1102;66117;-80
2021/03/01 05:27:20;;;;;;;22.57;10.23;;;;;;;3.24;85.31;102885.23;123503;1102;64886;-81
2021/03/01 05:29:46;;;;;;;23.10;10.63;;;;;;;3.24;85.99;102879.98;123370;1102;65060;-81
2021/03/01 05:32:12;;;;;;;22.40;11.90;;;;;;;3.21;85.92;102875.74;123516;1102;65253;-82
2021/03/01 05:34:38;;;;;;;24.10;11.47;;;;;;;3.22;85.99;102882.67;123772;1105;64918;-81
2021/03/01 05:37:05;;;;;;;31.40;13.55;;;;;;;3.23;85.38;102881.77;123521;1102;65669;-81
2021/03/01 05:39:31;;;;;;;23.70;10.97;;;;;;;3.25;86.07;102877.30;123480;1102;64898;-81
2021/03/01 05:41:58;;;;;;;23.03;11.80;;;;;;;3.26;86.08;102876.36;123503;1102;64891;-82
2021/03/01 05:44:25;;;;;;;19.65;10.78;;;;;;;3.26;86.12;102878.98;123588;1103;64920;-80
2021/03/01 05:46:55;;;;;;;27.50;11.67;;;;;;;3.24;85.81;102875.58;123824;1102;64927;-80
2021/03/01 05:49:22;;;;;;;19.60;9.55;;;;;;;3.24;85.30;102875.58;123735;1105;64911;-80
2021/03/01 05:51:51;;;;;;;23.93;10.43;;;;;;;3.23;85.99;102870.40;123506;1105;65026;-82
2021/03/01 05:54:23;;;;;;;26.50;11.25;;;;;;;3.23;86.12;102870.40;123695;1102;66118;-81
2021/03/01 05:56:50;;;;;;;27.50;12.27;;;;;;;3.23;85.01;102878.27;123851;1101;65007;-81
2021/03/01 05:59:16;;;;;;;28.00;12.07;;;;;;;3.23;84.89;102883.52;123495;1102;64905;-80
2021/03/01 06:01:44;;;;;;;25.13;10.17;;;;;;;3.20;85.77;102881.89;123417;1102;65020;-79
2021/03/01 06:04:11;;;;;;;19.70;10.13;;;;;;;3.19;85.22;102879.38;123956;1102;64835;-80
2021/03/01 06:06:39;;;;;;;28.30;12.90;;;;;;;3.18;85.16;102881.12;123517;1105;64982;-79
2021/03/01 06:09:06;;;;;;;21.17;10.33;;;;;;;3.19;86.19;102885.45;123935;1102;64985;-81
2021/03/01 06:11:32;;;;;;;19.80;9.75;;;;;;;3.17;85.40;102889.92;123534;1102;65649;-81
2021/03/01 06:14:06;;;;;;;16.33;8.77;;;;;;;3.14;85.73;102892.67;123569;1102;65716;-81
2021/03/01 06:16:32;;;;;;;19.10;10.80;;;;;;;3.15;85.30;102885.68;123570;1105;65355;-80
2021/03/01 06:18:59;;;;;;;11.17;5.13;;;;;;;3.12;84.98;102885.81;123925;1102;64870;-81
2021/03/01 06:21:26;;;;;;;21.87;9.27;;;;;;;3.10;84.20;102893.73;123559;1102;65033;-82
2021/03/01 06:23:53;;;;;;;24.93;11.13;;;;;;;3.09;85.62;102892.05;123490;1102;64937;-82
2021/03/01 06:26:33;;;;;;;22.50;10.00;;;;;;;3.08;83.79;102895.58;123588;1102;64949;-77
2021/03/01 06:29:03;;;;;;;17.83;7.97;;;;;;;3.09;83.95;102893.83;123335;1102;64960;-79
2021/03/01 06:31:39;;;;;;;21.00;10.33;;;;;;;3.13;84.21;102898.02;123786;1102;65780;-78
2021/03/01 06:34:33;;;;;;;19.90;10.43;;;;;;;3.15;85.09;102896.17;123947;1102;65033;-78
2021/03/01 06:37:09;;;;;;;19.45;10.45;;;;;;;3.16;83.99;102896.08;123937;1102;64917;-79
2021/03/01 06:39:41;;;;;;;19.07;8.57;;;;;;;3.15;83.87;102891.77;123787;1102;64975;-78
2021/03/01 06:42:19;;;;;;;22.00;9.30;;;;;;;3.12;83.54;102886.65;123415;1102;65065;-79
2021/03/01 06:44:59;;;;;;;20.60;8.87;;;;;;;3.12;83.97;102886.65;123583;1102;66012;-79
2021/03/01 06:47:52;;;;;;;21.95;9.65;;;;;;;3.14;84.55;102887.43;123773;1102;66392;-79
2021/03/01 06:50:33;;;;;;;13.80;8.17;;;;;;;3.17;84.16;102895.17;124054;1102;65712;-77
2021/03/01 06:53:10;;;;;;;16.40;7.93;;;;;;;3.18;84.81;102891.61;123870;1102;64937;-79
2021/03/01 06:55:57;;;;;;;16.07;7.50;;;;;;;3.19;84.22;102895.95;123545;1102;64844;-78
2021/03/01 06:58:27;;;;;;;12.50;6.37;;;;;;;3.18;84.32;102899.48;123714;1102;64917;-80
2021/03/01 07:01:03;;;;;;;14.03;5.73;;;;;;;3.17;84.53;102905.66;123506;1102;64850;-80
2021/03/01 07:03:30;;;;;;;16.37;6.57;;;;;;;3.17;84.33;102899.57;123856;1102;64896;-79
2021/03/01 07:05:58;;;;;;;12.00;5.10;;;;;;;3.16;84.12;102901.32;123566;1102;65395;-80
2021/03/01 07:08:34;;;;;;;14.57;5.97;;;;;;;3.22;83.29;102902.81;123632;1102;64946;-80
2021/03/01 07:11:01;;;;;;;11.13;4.73;;;;;;;3.22;82.83;102908.91;123644;1102;64891;-79
2021/03/01 07:13:31;;;;;;;10.83;4.30;;;;;;;3.23;83.05;102900.13;123578;1102;65077;-81
2021/03/01 07:16:00;;;;;;;14.97;7.70;;;;;;;3.26;84.27;102913.08;123662;1102;64899;-79
2021/03/01 07:18:28;;;;;;;10.07;5.43;;;;;;;3.33;84.03;102899.67;123497;1105;64940;-77
2021/03/01 07:20:57;;;;;;;11.17;4.63;;;;;;;3.35;82.90;102901.30;123865;1102;65969;-79
2021/03/01 07:23:24;;;;;;;22.00;8.17;;;;;;;3.38;83.11;102898.55;123558;1102;65061;-77
2021/03/01 07:25:51;;;;;;;16.87;9.00;;;;;;;3.42;83.54;102904.47;123826;1102;64998;-79
2021/03/01 07:28:18;;;;;;;16.43;7.93;;;;;;;3.46;83.06;102900.78;123885;1102;65295;-76
2021/03/01 07:30:48;;;;;;;16.80;8.43;;;;;;;3.51;83.35;102900.55;123438;1102;65251;-79
2021/03/01 07:33:15;;;;;;;11.23;5.80;;;;;;;3.51;82.67;102897.92;123529;1102;64914;-81
2021/03/01 07:35:42;;;;;;;15.37;7.07;;;;;;;3.48;83.15;102904.18;123536;1102;64973;-81
2021/03/01 07:38:09;;;;;;;13.20;6.90;;;;;;;3.47;82.57;102907.74;124159;1102;64850;-78
2021/03/01 07:40:36;;;;;;;12.77;6.77;;;;;;;3.49;82.03;102912.93;123433;1105;64985;-77
2021/03/01 07:43:04;;;;;;;14.40;6.87;;;;;;;3.50;82.31;102917.23;123436;1102;65363;-77
2021/03/01 07:45:32;;;;;;;20.07;7.70;;;;;;;3.54;83.03;102924.88;123594;1102;64962;-78
2021/03/01 07:48:01;;;;;;;14.97;6.40;;;;;;;3.56;82.46;102930.06;123800;1102;66042;-77
2021/03/01 07:50:36;;;;;;;20.35;8.70;;;;;;;3.62;82.78;102929.77;123438;1105;64998;-79
2021/03/01 07:53:04;;;;;;;13.90;6.03;;;;;;;3.62;81.63;102930.61;123730;1102;64854;-79
2021/03/01 07:55:30;;;;;;;9.53;4.47;;;;;;;3.63;82.01;102940.20;123751;1102;65052;-78
2021/03/01 07:58:03;;;;;;;13.37;5.40;;;;;;;3.64;81.98;102941.89;123445;1102;64931;-80
2021/03/01 08:00:33;;;;;;;9.97;5.50;;;;;;;3.64;81.43;102944.52;123859;1103;65407;-80
2021/03/01 08:03:34;;;;;;;14.43;7.57;;;;;;;3.66;82.21;102937.41;123445;1102;65019;-78
2021/03/01 08:06:01;;;;;;;18.77;7.23;;;;;;;3.71;82.79;102946.84;123457;1104;65029;-81
2021/03/01 08:08:49;;;;;;;14.47;8.00;;;;;;;3.78;81.67;102948.23;123574;1102;64934;-82
2021/03/01 08:11:34;;;;;;;12.23;5.57;;;;;;;3.82;82.13;102944.53;123799;1102;64898;-79
2021/03/01 08:14:00;;;;;;;11.83;5.70;;;;;;;3.82;82.35;102944.53;123765;1102;64847;-82
2021/03/01 08:16:27;;;;;;;10.93;4.37;;;;;;;3.82;81.28;102955.87;123968;1102;64976;-79
2021/03/01 08:18:58;;;;;;;17.00;7.97;;;;;;;3.83;81.35;102949.72;123691;1102;64908;-79
2021/03/01 08:22:03;;;;;;;8.17;4.13;;;;;;;3.83;81.43;102954.12;123825;1102;64978;-80
2021/03/01 08:24:50;;;;;;;12.80;6.65;;;;;;;3.84;81.24;102954.03;123643;1102;64899;-82
2021/03/01 08:27:28;;;;;;;11.20;4.67;;;;;;;3.85;80.56;102949.66;123814;1102;64888;-81
2021/03/01 08:30:21;;;;;;;9.00;4.97;;;;;;;3.87;81.71;102953.05;123868;1102;64991;-81
2021/03/01 08:33:09;;;;;;;9.57;4.97;;;;;;;3.91;80.40;102957.23;123860;1102;64975;-79
2021/03/01 08:36:00;;;;;;;9.93;3.53;;;;;;;4.01;80.78;102955.82;123700;1103;65687;-81
2021/03/01 08:38:50;;;;;;;13.17;6.97;;;;;;;4.07;80.62;102955.52;123589;1102;64883;-82
2021/03/01 08:41:37;;;;;;;12.33;7.40;;;;;;;4.12;79.58;102957.91;123502;1102;64949;-80
2021/03/01 08:44:25;;;;;;;9.23;4.57;;;;;;;4.16;80.35;102958.61;123842;1102;64898;-79
2021/03/01 08:47:02;;;;;;;12.73;6.83;;;;;;;4.22;80.24;102959.15;123341;1105;64963;-80
2021/03/01 08:49:28;;;;;;;13.40;6.80;;;;;;;4.27;80.59;102962.41;123613;1102;64923;-78
2021/03/01 08:51:55;;;;;;;12.10;6.43;;;;;;;4.33;80.55;102953.34;123648;1102;64837;-79
2021/03/01 08:54:31;;;;;;;11.80;3.93;;;;;;;4.37;78.90;102952.27;123382;1102;64981;-80
2021/03/01 08:57:18;;;;;;;15.40;6.00;;;;;;;4.40;79.32;102952.13;123599;1105;65050;-81
2021/03/01 08:59:44;;;;;;;19.30;8.77;;;;;;;4.43;79.94;102957.20;123587;1102;64927;-81
2021/03/01 09:02:21;;;;;;;10.77;5.00;;;;;;;4.47;79.25;102950.86;123797;1102;64999;-81
2021/03/01 09:05:07;;;;;;;12.10;4.97;;;;;;;4.44;78.22;102948.41;123919;1102;64869;-80
2021/03/01 09:07:44;;;;;;;9.37;4.07;;;;;;;4.47;78.85;102947.40;123990;1102;64908;-79
2021/03/01 09:10:12;;;;;;;12.87;5.90;;;;;;;4.52;78.72;102955.03;123863;1102;64940;-81
2021/03/01 09:12:38;;;;;;;18.80;8.00;;;;;;;4.56;78.70;102953.95;123911;1102;64917;-81
2021/03/01 09:15:08;;;;;;;17.30;7.00;;;;;;;4.63;79.03;102957.94;123630;1105;64952;-83
2021/03/01 09:17:34;;;;;;;16.37;6.50;;;;;;;4.67;78.76;102959.48;123918;1102;65271;-81
2021/03/01 09:20:03;;;;;;;15.30;6.63;;;;;;;4.66;77.59;102952.55;124263;1102;64888;-80
2021/03/01 09:22:43;;;;;;;12.77;5.77;;;;;;;4.64;77.81;102949.15;123599;1102;64978;-83
2021/03/01 09:25:31;;;;;;;10.40;4.53;;;;;;;4.65;77.84;102950.83;123996;1102;64883;-80
2021/03/01 09:27:58;;;;;;;16.50;8.40;;;;;;;4.70;77.52;102951.45;123841;1102;64981;-81
2021/03/01 09:30:26;;;;;;;17.47;7.50;;;;;;;4.75;76.66;102953.84;124228;1102;64857;-80
2021/03/01 09:33:02;;;;;;;13.80;7.17;;;;;;;4.76;76.93;102958.15;124124;1102;64869;-82
2021/03/01 09:35:32;;;;;;;11.70;6.20;;;;;;;4.82;77.25;102948.15;123826;1102;65687;-80
2021/03/01 09:38:03;;;;;;;14.47;7.37;;;;;;;4.89;76.75;102953.95;123734;1102;64848;-81
2021/03/01 09:40:30;;;;;;;15.23;6.73;;;;;;;4.94;77.46;102956.34;123674;1102;64952;-79
2021/03/01 09:43:03;;;;;;;10.93;4.63;;;;;;;4.98;76.92;102955.24;123655;1105;64985;-80
2021/03/01 09:45:35;;;;;;;17.67;7.80;;;;;;;5.03;76.22;102956.67;123965;1102;64966;-87
2021/03/01 09:48:05;;;;;;;17.17;9.10;;;;;;;5.09;76.00;102958.13;124434;1103;64873;-86
2021/03/01 09:50:37;;;;;;;17.00;8.87;;;;;;;5.15;75.84;102957.80;125127;1105;64825;-89
2021/03/01 09:53:05;;;;;;;15.50;7.87;;;;;;;5.19;74.47;102956.70;124836;1105;64879;-86
2021/03/01 09:55:32;;;;;;;23.23;10.47;;;;;;;5.22;75.01;102960.94;124204;1105;64982;-86
2021/03/01 09:57:58;;;;;;;26.73;12.77;;;;;;;5.29;74.81;102959.66;123836;1102;64934;-85
2021/03/01 10:00:30;;;;;;;23.98;11.70;;;;;;;5.34;74.63;102956.80;123835;1102;65014;-83
2021/03/01 10:03:04;;;;;;;27.50;12.90;;;;;;;5.38;74.44;102958.33;123838;1102;64841;-82
2021/03/01 10:05:33;;;;;;;24.80;13.20;;;;;;;5.44;74.10;102955.33;123879;1102;65001;-79
2021/03/01 10:08:04;;;;;;;27.23;13.97;;;;;;;5.48;74.47;102954.22;124238;1102;64936;-79
2021/03/01 10:10:40;;;;;;;23.95;10.30;;;;;;;5.53;73.58;102948.73;123912;1105;64886;-80
2021/03/01 10:13:08;;;;;;;44.77;18.57;;;;;;;5.58;74.44;102947.51;124438;1102;64982;-80
2021/03/01 10:15:45;;;;;;;38.45;15.80;;;;;;;5.63;74.04;102947.24;124029;1102;64969;-82
2021/03/01 10:18:14;;;;;;;40.70;16.00;;;;;;;5.64;73.55;102946.33;123853;1102;64966;-81
2021/03/01 10:20:54;;;;;;;32.47;15.23;;;;;;;5.61;73.61;102947.35;123934;1102;65243;-82
2021/03/01 10:23:27;;;;;;;34.50;14.70;;;;;;;5.58;73.26;102941.41;124394;1102;64908;-82
2021/03/01 10:26:14;;;;;;;42.70;18.73;;;;;;;5.57;72.99;102942.32;123786;1105;64985;-80
2021/03/01 10:28:43;;;;;;;54.03;22.83;;;;;;;5.58;72.15;102939.61;123846;1102;64930;-82
2021/03/01 10:31:14;;;;;;;46.83;20.77;;;;;;;5.54;72.32;102940.72;123608;1105;64965;-82
2021/03/01 10:33:59;;;;;;;45.70;19.97;;;;;;;5.58;73.15;102946.67;123939;1102;64912;-80
2021/03/01 10:36:29;;;;;;;50.97;22.53;;;;;;;5.62;72.95;102943.77;124037;1102;64910;-81
2021/03/01 10:39:15;;;;;;;34.25;13.95;;;;;;;5.68;72.47;102948.69;124010;1102;65016;-82
2021/03/01 10:41:51;;;;;;;63.77;25.50;;;;;;;5.77;73.14;102943.84;123982;1102;64933;-83
2021/03/01 10:44:26;;;;;;;59.87;25.10;;;;;;;5.81;72.16;102942.73;123762;1103;64927;-83
2021/03/01 10:46:52;;;;;;;44.00;18.73;;;;;;;5.84;72.05;102938.11;123672;1102;64899;-82
2021/03/01 10:49:23;;;;;;;52.47;22.93;;;;;;;5.91;72.47;102943.90;123993;1102;65478;-82
2021/03/01 10:51:51;;;;;;;58.23;27.13;;;;;;;5.96;70.83;102941.02;123919;1105;65280;-82
2021/03/01 10:54:18;;;;;;;47.40;18.57;;;;;;;5.96;70.92;102941.86;124269;1106;64873;-82
2021/03/01 10:56:44;;;;;;;40.73;19.40;;;;;;;5.94;71.77;102954.24;124306;1102;64924;-80
2021/03/01 10:59:10;;;;;;;42.88;18.82;;;;;;;6.03;72.16;102953.73;123805;1102;64851;-81
2021/03/01 11:01:42;;;;;;;40.53;18.20;;;;;;;6.06;71.36;102944.82;123743;1102;65213;-82
2021/03/01 11:04:14;;;;;;;38.43;18.53;;;;;;;6.09;71.56;102950.73;124060;1102;65014;-83
2021/03/01 11:06:41;;;;;;;42.37;19.43;;;;;;;6.10;71.57;102947.18;123845;1105;64931;-81
2021/03/01 11:09:10;;;;;;;38.20;16.17;;;;;;;6.11;71.47;102946.23;123757;1106;64892;-81
2021/03/01 11:11:38;;;;;;;40.20;20.73;;;;;;;6.21;71.52;102940.44;123823;1102;65699;-82
2021/03/01 11:14:07;;;;;;;36.23;18.43;;;;;;;6.30;70.17;102938.08;124039;1102;65010;-85
2021/03/01 11:16:33;;;;;;;40.60;17.43;;;;;;;6.41;70.60;102934.80;123886;1103;64898;-83
2021/03/01 11:19:00;;;;;;;49.43;23.53;;;;;;;6.47;69.34;102931.80;124035;1102;64895;-83
2021/03/01 11:21:27;;;;;;;46.07;23.60;;;;;;;6.56;69.24;102922.47;123994;1102;65374;-84
2021/03/01 11:23:53;;;;;;;40.77;20.43;;;;;;;6.69;69.97;102925.20;124122;1102;64912;-84
2021/03/01 11:26:20;;;;;;;36.60;19.60;;;;;;;6.83;69.46;102921.72;124365;1102;64917;-84